createdAt,value
2022-09-09T00:01:31.669Z,11.02
2022-09-09T00:03:46.409Z,11.38
2022-09-09T00:06:01.621Z,10.95
2022-09-09T00:08:06.585Z,12.27
2022-09-09T00:10:22.959Z,10.50
2022-09-09T00:12:36.548Z,12.23
2022-09-09T00:14:49.126Z,10.00
2022-09-09T00:16:57.442Z,10.10
2022-09-09T00:19:06.339Z,10.80
2022-09-09T00:21:16.614Z,9.03
2022-09-09T00:23:27.515Z,10.93
2022-09-09T00:25:37.914Z,9.80
2022-09-09T00:27:48.011Z,9.55
2022-09-09T00:29:58.243Z,12.02
2022-09-09T00:32:11.272Z,11.57
2022-09-09T00:34:18.944Z,11.80
2022-09-09T00:36:26.356Z,11.98
2022-09-09T00:38:36.256Z,11.35
2022-09-09T00:40:48.187Z,10.73
2022-09-09T00:43:05.566Z,9.80
2022-09-09T00:45:29.521Z,9.35
2022-09-09T00:47:43.625Z,9.80
2022-09-09T00:50:01.290Z,9.95
2022-09-09T00:52:24.375Z,13.32
2022-09-09T00:54:36.108Z,13.98
2022-09-09T00:56:48.268Z,14.07
2022-09-09T00:59:02.626Z,14.70
2022-09-09T01:01:12.216Z,14.07
2022-09-09T01:03:35.051Z,13.95
2022-09-09T01:05:47.242Z,13.50
2022-09-09T01:07:55.155Z,14.55
2022-09-09T01:10:08.024Z,15.35
2022-09-09T01:14:38.544Z,13.35
2022-09-09T01:16:45.169Z,11.98
2022-09-09T01:18:55.136Z,12.70
2022-09-09T01:23:21.500Z,11.90
2022-09-09T01:26:19.176Z,13.85
2022-09-09T01:28:28.750Z,14.30
2022-09-09T01:30:43.008Z,13.90
2022-09-09T01:32:53.130Z,14.45
2022-09-09T01:34:57.207Z,13.25
2022-09-09T01:37:05.808Z,14.10
2022-09-09T01:39:10.394Z,14.20
2022-09-09T01:41:16.432Z,13.38
2022-09-09T01:43:33.785Z,14.13
2022-09-09T01:45:39.806Z,14.52
2022-09-09T01:47:45.058Z,14.45
2022-09-09T01:50:10.598Z,15.02
2022-09-09T01:52:14.886Z,15.05
2022-09-09T01:54:19.398Z,15.50
2022-09-09T01:56:37.805Z,14.65
2022-09-09T01:58:57.870Z,12.65
2022-09-09T02:01:08.692Z,11.40
2022-09-09T02:03:21.182Z,10.75
2022-09-09T02:05:38.457Z,11.02
2022-09-09T02:07:50.782Z,11.30
2022-09-09T02:10:14.297Z,10.93
2022-09-09T02:12:28.247Z,12.60
2022-09-09T02:14:40.017Z,13.18
2022-09-09T02:16:49.644Z,12.82
2022-09-09T02:18:59.419Z,12.98
2022-09-09T02:21:15.402Z,13.02
2022-09-09T02:23:21.452Z,12.02
2022-09-09T02:25:31.669Z,12.40
2022-09-09T02:27:48.955Z,11.50
2022-09-09T02:29:55.270Z,11.30
2022-09-09T02:32:16.052Z,11.02
2022-09-09T02:34:22.813Z,10.25
2022-09-09T02:36:30.225Z,11.13
2022-09-09T02:38:41.049Z,11.00
2022-09-09T02:40:50.890Z,9.88
2022-09-09T02:42:57.427Z,9.48
2022-09-09T02:45:01.585Z,9.52
2022-09-09T02:47:21.699Z,10.32
2022-09-09T02:49:34.582Z,9.30
2022-09-09T02:51:48.902Z,9.65
2022-09-09T02:54:00.271Z,9.02
2022-09-09T02:56:08.273Z,9.95
2022-09-09T02:58:18.911Z,10.32
2022-09-09T03:00:32.258Z,10.65
2022-09-09T03:02:39.651Z,11.15
2022-09-09T03:04:47.487Z,10.68
2022-09-09T03:06:51.820Z,11.00
2022-09-09T03:08:58.416Z,12.05
2022-09-09T03:11:04.603Z,11.93
2022-09-09T03:13:13.907Z,12.27
2022-09-09T03:15:20.421Z,11.57
2022-09-09T03:17:26.880Z,10.93
2022-09-09T03:19:33.212Z,10.57
2022-09-09T03:21:37.746Z,9.82
2022-09-09T03:23:41.883Z,11.55
2022-09-09T03:25:50.157Z,12.35
2022-09-09T03:27:59.004Z,12.02
2022-09-09T03:30:04.919Z,12.07
2022-09-09T03:32:11.831Z,11.40
2022-09-09T03:34:16.910Z,11.15
2022-09-09T03:36:21.183Z,10.70
2022-09-09T03:38:25.824Z,12.10
2022-09-09T03:40:30.264Z,12.63
2022-09-09T03:42:34.477Z,11.60
2022-09-09T03:44:39.128Z,12.68
2022-09-09T03:46:43.997Z,13.73
2022-09-09T03:48:49.542Z,13.75
2022-09-09T03:50:55.028Z,14.40
2022-09-09T03:52:59.992Z,13.88
2022-09-09T03:55:04.284Z,15.02
2022-09-09T03:57:08.845Z,14.50
2022-09-09T03:59:13.218Z,14.30
2022-09-09T04:01:19.325Z,13.43
2022-09-09T04:03:28.037Z,13.90
2022-09-09T04:05:35.566Z,14.10
2022-09-09T04:07:39.908Z,12.63
2022-09-09T04:09:44.383Z,12.43
2022-09-09T04:11:48.750Z,14.10
2022-09-09T04:13:53.037Z,14.07
2022-09-09T04:15:59.626Z,12.55
2022-09-09T04:18:03.916Z,12.13
2022-09-09T04:20:12.431Z,13.68
2022-09-09T04:22:18.380Z,13.93
2022-09-09T04:24:22.698Z,11.77
2022-09-09T04:26:27.726Z,11.15
2022-09-09T04:28:34.481Z,13.00
2022-09-09T04:30:40.910Z,11.93
2022-09-09T04:32:45.232Z,10.93
2022-09-09T04:34:49.528Z,12.40
2022-09-09T04:36:54.325Z,11.52
2022-09-09T04:39:00.379Z,10.85
2022-09-09T04:41:04.844Z,10.77
2022-09-09T04:43:14.309Z,11.77
2022-09-09T04:45:20.805Z,11.48
2022-09-09T04:47:25.050Z,11.88
2022-09-09T04:49:29.231Z,10.55
2022-09-09T04:51:33.631Z,11.02
2022-09-09T04:53:38.364Z,11.65
2022-09-09T04:55:44.145Z,9.45
2022-09-09T04:57:49.366Z,9.77
2022-09-09T04:59:53.976Z,10.50
2022-09-09T05:01:58.411Z,10.57
2022-09-09T05:04:16.314Z,9.60
2022-09-09T05:06:23.091Z,9.65
2022-09-09T05:08:31.890Z,9.63
2022-09-09T05:10:38.598Z,8.95
2022-09-09T05:12:44.743Z,9.50
2022-09-09T05:14:49.097Z,8.50
2022-09-09T05:16:53.206Z,9.32
2022-09-09T05:19:00.339Z,8.10
2022-09-09T05:21:13.297Z,8.05
2022-09-09T05:23:17.636Z,8.95
2022-09-09T05:25:23.215Z,7.47
2022-09-09T05:27:27.629Z,7.82
2022-09-09T05:29:34.523Z,7.57
2022-09-09T05:31:42.536Z,8.05
2022-09-09T05:33:51.541Z,8.57
2022-09-09T05:36:00.488Z,8.18
2022-09-09T05:38:06.031Z,7.72
2022-09-09T05:40:12.216Z,8.38
2022-09-09T05:42:17.776Z,7.68
2022-09-09T05:44:24.489Z,7.30
2022-09-09T05:46:30.566Z,7.78
2022-09-09T05:48:36.156Z,7.20
2022-09-09T05:50:40.443Z,8.00
2022-09-09T05:52:45.678Z,8.32
2022-09-09T05:54:50.357Z,7.45
2022-09-09T05:56:54.677Z,7.82
2022-09-09T05:59:01.199Z,7.82
2022-09-09T06:01:08.843Z,7.38
2022-09-09T06:03:15.035Z,7.35
2022-09-09T06:05:19.559Z,8.27
2022-09-09T06:07:24.179Z,7.10
2022-09-09T06:09:28.325Z,7.10
2022-09-09T06:11:35.249Z,8.68
2022-09-09T06:13:40.764Z,6.78
2022-09-09T06:15:52.254Z,7.82
2022-09-09T06:17:57.493Z,7.93
2022-09-09T06:20:03.926Z,6.10
2022-09-09T06:22:13.688Z,5.95
2022-09-09T06:24:20.375Z,6.05
2022-09-09T06:26:26.528Z,5.32
2022-09-09T06:28:31.044Z,5.25
2022-09-09T06:30:35.460Z,6.18
2022-09-09T06:32:40.381Z,6.20
2022-09-09T06:34:46.650Z,6.15
2022-09-09T06:36:53.156Z,7.20
2022-09-09T06:38:58.159Z,6.25
2022-09-09T06:41:02.934Z,5.90
2022-09-09T06:43:07.940Z,6.22
2022-09-09T06:47:28.404Z,5.90
2022-09-09T06:49:34.260Z,6.40
2022-09-09T06:51:44.023Z,5.75
2022-09-09T06:53:54.608Z,6.40
2022-09-09T06:56:00.044Z,6.47
2022-09-09T06:58:04.574Z,5.80
2022-09-09T07:00:10.601Z,6.45
2022-09-09T07:02:15.759Z,6.15
2022-09-09T07:04:20.429Z,6.07
2022-09-09T07:06:26.325Z,6.25
2022-09-09T07:08:31.530Z,5.80
2022-09-09T07:10:38.231Z,6.65
2022-09-09T07:12:42.521Z,6.10
2022-09-09T07:14:48.886Z,6.53
2022-09-09T07:16:56.440Z,5.90
2022-09-09T07:19:03.648Z,6.18
2022-09-09T07:21:09.608Z,6.03
2022-09-09T07:23:13.828Z,6.55
2022-09-09T07:25:19.049Z,5.75
2022-09-09T07:27:29.718Z,5.90
2022-09-09T07:29:35.602Z,6.55
2022-09-09T07:31:47.643Z,5.85
2022-09-09T07:33:57.694Z,5.95
2022-09-09T07:36:08.193Z,6.60
2022-09-09T07:38:13.404Z,6.20
2022-09-09T07:40:19.120Z,6.50
2022-09-09T07:42:26.278Z,6.63
2022-09-09T07:44:31.614Z,6.38
2022-09-09T07:46:43.568Z,7.32
2022-09-09T07:48:52.334Z,6.75
2022-09-09T07:51:08.270Z,6.85
2022-09-09T07:53:12.738Z,6.43
2022-09-09T07:55:20.749Z,6.55
2022-09-09T07:57:31.924Z,5.80
2022-09-09T07:59:39.260Z,6.38
2022-09-09T08:01:45.406Z,6.28
2022-09-09T08:03:57.220Z,6.60
2022-09-09T08:06:04.441Z,6.47
2022-09-09T08:08:10.159Z,5.82
2022-09-09T08:10:21.663Z,6.20
2022-09-09T08:12:28.824Z,6.40
2022-09-09T08:14:34.294Z,6.93
2022-09-09T08:16:42.281Z,5.85
2022-09-09T08:18:46.877Z,7.28
2022-09-09T08:20:51.159Z,6.80
2022-09-09T08:22:57.347Z,6.00
2022-09-09T08:25:07.927Z,6.65
2022-09-09T08:27:15.095Z,6.25
2022-09-09T08:29:21.983Z,6.10
2022-09-09T08:31:29.149Z,6.50
2022-09-09T08:33:34.213Z,6.05
2022-09-09T08:35:38.803Z,5.75
2022-09-09T08:37:43.733Z,5.20
2022-09-09T08:39:54.100Z,6.47
2022-09-09T08:42:23.500Z,6.78
2022-09-09T08:44:48.637Z,6.43
2022-09-09T08:47:00.682Z,6.18
2022-09-09T08:49:14.059Z,6.38
2022-09-09T08:51:18.929Z,6.00
2022-09-09T08:53:26.881Z,6.75
2022-09-09T08:55:42.485Z,6.05
2022-09-09T08:57:47.371Z,5.90
2022-09-09T08:59:54.730Z,6.70
2022-09-09T09:02:09.927Z,7.00
2022-09-09T09:04:40.592Z,5.95
2022-09-09T09:06:57.194Z,6.22
2022-09-09T09:09:05.912Z,6.75
2022-09-09T09:11:10.602Z,6.10
2022-09-09T09:13:18.272Z,6.55
2022-09-09T09:15:30.695Z,6.03
2022-09-09T09:17:38.722Z,7.40
2022-09-09T09:19:47.776Z,6.50
2022-09-09T09:21:58.504Z,5.90
2022-09-09T09:24:07.727Z,6.15
2022-09-09T09:26:13.419Z,7.20
2022-09-09T09:28:23.146Z,7.10
2022-09-09T09:30:39.609Z,6.50
2022-09-09T09:32:54.879Z,6.10
2022-09-09T09:35:02.204Z,6.40
2022-09-09T09:37:20.839Z,6.10
2022-09-09T09:41:54.349Z,6.07
2022-09-09T09:43:59.484Z,6.15
2022-09-09T09:46:17.710Z,6.63
2022-09-09T09:48:23.812Z,6.13
2022-09-09T09:50:28.567Z,6.43
2022-09-09T09:52:37.854Z,5.53
2022-09-09T09:54:45.263Z,6.20
2022-09-09T09:56:50.024Z,6.38
2022-09-09T09:58:56.282Z,6.45
2022-09-09T10:01:25.409Z,6.97
2022-09-09T10:03:41.465Z,6.65
2022-09-09T10:05:49.630Z,6.45
2022-09-09T10:08:12.025Z,6.65
2022-09-09T10:10:24.453Z,6.65
2022-09-09T10:12:40.301Z,6.53
2022-09-09T10:14:53.586Z,6.70
2022-09-09T10:17:12.585Z,7.40
2022-09-09T10:19:18.847Z,6.68
2022-09-09T10:21:44.204Z,6.90
2022-09-09T10:24:02.814Z,7.40
2022-09-09T10:26:20.660Z,6.73
2022-09-09T10:28:53.283Z,6.78
2022-09-09T10:31:13.878Z,6.38
2022-09-09T10:33:30.075Z,6.50
2022-09-09T10:35:42.789Z,6.68
2022-09-09T10:38:15.059Z,6.10
2022-09-09T10:40:33.846Z,6.80
2022-09-09T10:42:39.285Z,6.37
2022-09-09T10:45:05.926Z,7.35
2022-09-09T10:47:47.570Z,7.00
2022-09-09T10:50:21.007Z,6.50
2022-09-09T10:52:33.721Z,6.20
2022-09-09T10:54:53.032Z,6.38
2022-09-09T10:57:02.417Z,6.60
2022-09-09T10:59:13.098Z,7.07
2022-09-09T11:01:23.223Z,6.50
2022-09-09T11:03:31.001Z,6.10
2022-09-09T11:05:43.762Z,6.38
2022-09-09T11:07:53.952Z,6.60
2022-09-09T11:10:04.119Z,6.43
2022-09-09T11:12:15.683Z,6.20
2022-09-09T11:14:28.713Z,6.47
2022-09-09T11:16:42.963Z,6.75
2022-09-09T11:18:50.481Z,5.82
2022-09-09T11:21:03.476Z,6.60
2022-09-09T11:23:14.806Z,6.28
2022-09-09T11:25:23.324Z,5.88
2022-09-09T11:27:32.812Z,6.38
2022-09-09T11:30:05.751Z,6.18
2022-09-09T11:32:36.162Z,6.85
2022-09-09T11:34:53.025Z,6.05
2022-09-09T11:37:24.719Z,6.72
2022-09-09T11:39:54.140Z,6.28
2022-09-09T11:44:15.033Z,6.22
2022-09-09T11:46:30.926Z,6.88
2022-09-09T11:48:39.450Z,6.70
2022-09-09T11:50:43.879Z,6.15
2022-09-09T11:52:50.951Z,6.88
2022-09-09T11:54:58.739Z,5.93
2022-09-09T11:57:05.827Z,5.90
2022-09-09T11:59:23.267Z,6.38
2022-09-09T12:01:35.828Z,6.53
2022-09-09T12:03:45.770Z,9.65
2022-09-09T12:05:52.482Z,6.18
2022-09-09T12:08:00.778Z,6.72
2022-09-09T12:10:09.187Z,5.90
2022-09-09T12:12:31.587Z,5.78
2022-09-09T12:14:41.120Z,6.13
2022-09-09T12:16:46.797Z,6.28
2022-09-09T12:18:51.780Z,6.82
2022-09-09T12:21:05.782Z,6.50
2022-09-09T12:23:28.373Z,6.78
2022-09-09T12:25:42.326Z,6.47
2022-09-09T12:27:58.639Z,6.18
2022-09-09T12:30:07.594Z,6.13
2022-09-09T12:32:25.200Z,6.68
2022-09-09T12:34:41.961Z,6.40
2022-09-09T12:36:55.899Z,6.93
2022-09-09T12:39:19.031Z,7.40
2022-09-09T12:41:25.676Z,7.10
2022-09-09T12:43:31.120Z,5.90
2022-09-09T12:45:37.079Z,6.70
2022-09-09T12:47:46.975Z,6.30
2022-09-09T12:49:53.798Z,6.13
2022-09-09T12:51:59.722Z,6.70
2022-09-09T12:54:06.652Z,7.28
2022-09-09T12:56:22.916Z,6.60
2022-09-09T12:58:29.493Z,7.03
2022-09-09T13:00:34.901Z,7.45
2022-09-09T13:02:51.400Z,8.57
2022-09-09T13:05:16.432Z,7.47
2022-09-09T13:07:21.651Z,6.05
2022-09-09T13:09:28.436Z,6.90
2022-09-09T13:13:52.311Z,6.20
2022-09-09T13:15:59.410Z,7.43
2022-09-09T13:20:23.056Z,6.50
2022-09-09T13:22:54.060Z,7.30
2022-09-09T13:28:46.480Z,7.45
2022-09-09T13:31:03.993Z,7.57
2022-09-09T13:33:24.679Z,7.28
2022-09-09T13:35:31.023Z,7.57
2022-09-09T13:37:41.227Z,8.95
2022-09-09T13:39:54.860Z,9.00
2022-09-09T13:42:00.575Z,8.35
2022-09-09T13:44:07.600Z,7.88
2022-09-09T13:46:28.940Z,7.38
2022-09-09T13:48:33.427Z,7.05
2022-09-09T13:50:38.387Z,7.38
2022-09-09T13:52:42.649Z,7.53
2022-09-09T13:54:52.168Z,8.15
2022-09-09T13:59:02.291Z,7.90
2022-09-09T14:01:06.751Z,7.57
2022-09-09T14:03:11.180Z,8.20
2022-09-09T14:05:16.151Z,7.75
2022-09-09T14:07:21.909Z,7.60
2022-09-09T14:09:26.317Z,7.95
2022-09-09T14:11:30.682Z,8.13
2022-09-09T14:13:35.360Z,7.03
2022-09-09T14:17:53.403Z,7.70
2022-09-09T14:19:57.695Z,7.80
2022-09-09T14:22:03.847Z,8.38
2022-09-09T14:24:08.480Z,7.95
2022-09-09T14:26:12.709Z,7.18
2022-09-09T14:28:20.510Z,7.43
2022-09-09T14:30:32.688Z,7.10
2022-09-09T14:32:41.575Z,7.28
2022-09-09T14:34:46.025Z,7.10
2022-09-09T14:36:52.280Z,7.53
2022-09-09T14:38:59.578Z,7.47
2022-09-09T14:41:04.472Z,7.25
2022-09-09T14:43:09.011Z,7.43
2022-09-09T14:45:18.704Z,7.25
2022-09-09T14:47:27.325Z,7.63
2022-09-09T14:49:41.607Z,8.30
2022-09-09T14:51:49.234Z,7.68
2022-09-09T14:53:57.082Z,8.30
2022-09-09T14:56:09.635Z,7.95
2022-09-09T14:58:14.572Z,7.70
2022-09-09T15:00:18.957Z,9.05
2022-09-09T15:02:23.446Z,9.25
2022-09-09T15:04:32.486Z,7.07
2022-09-09T15:06:40.246Z,8.27
2022-09-09T15:08:53.173Z,8.80
2022-09-09T15:11:14.344Z,7.93
2022-09-09T15:13:19.283Z,7.57
2022-09-09T15:15:23.873Z,8.50
2022-09-09T15:17:30.782Z,8.13
2022-09-09T15:19:35.387Z,8.15
2022-09-09T15:21:41.510Z,8.70
2022-09-09T15:23:46.134Z,8.90
2022-09-09T15:25:54.697Z,8.85
2022-09-09T15:27:59.446Z,9.50
2022-09-09T15:30:04.305Z,9.07
2022-09-09T15:32:09.527Z,8.98
2022-09-09T15:34:14.895Z,9.18
2022-09-09T15:36:21.140Z,8.43
2022-09-09T15:38:28.285Z,8.88
2022-09-09T15:40:33.356Z,8.73
2022-09-09T15:42:47.733Z,9.10
2022-09-09T15:44:51.908Z,9.90
2022-09-09T15:46:56.211Z,8.82
2022-09-09T15:49:05.734Z,8.50
2022-09-09T15:51:24.833Z,9.25
2022-09-09T15:53:36.924Z,8.43
2022-09-09T15:55:41.293Z,9.77
2022-09-09T15:57:48.301Z,9.13
2022-09-09T15:59:52.672Z,8.65
2022-09-09T16:01:57.293Z,8.65
2022-09-09T16:04:02.343Z,9.13
2022-09-09T16:06:07.992Z,9.50
2022-09-09T16:08:12.608Z,9.00
2022-09-09T16:10:21.564Z,8.52
2022-09-09T16:12:26.441Z,9.13
2022-09-09T16:14:35.439Z,9.00
2022-09-09T16:16:40.454Z,8.38
2022-09-09T16:18:46.340Z,8.90
2022-09-09T16:21:29.111Z,9.35
2022-09-09T16:23:34.133Z,9.25
2022-09-09T16:25:40.397Z,9.20
2022-09-09T16:27:44.964Z,8.63
2022-09-09T16:29:50.378Z,8.75
2022-09-09T16:31:54.989Z,8.35
2022-09-09T16:33:59.518Z,9.13
2022-09-09T16:36:09.030Z,8.50
2022-09-09T16:38:13.885Z,9.43
2022-09-09T16:40:18.448Z,8.48
2022-09-09T16:42:24.241Z,8.73
2022-09-09T16:44:28.998Z,9.18
2022-09-09T16:46:35.274Z,8.85
2022-09-09T16:48:39.657Z,9.50
2022-09-09T16:50:44.016Z,10.70
2022-09-09T16:52:48.364Z,9.60
2022-09-09T16:54:52.784Z,9.13
2022-09-09T16:56:57.041Z,9.85
2022-09-09T16:59:04.815Z,9.43
2022-09-09T17:01:09.271Z,9.75
2022-09-09T17:03:16.171Z,9.57
2022-09-09T17:05:20.490Z,10.52
2022-09-09T17:07:24.921Z,10.30
2022-09-09T17:09:30.494Z,9.73
2022-09-09T17:11:35.558Z,9.98
2022-09-09T17:13:40.220Z,9.57
2022-09-09T17:15:46.337Z,9.38
2022-09-09T17:17:54.680Z,9.73
2022-09-09T17:19:59.037Z,10.32
2022-09-09T17:22:18.702Z,9.60
2022-09-09T17:24:22.891Z,11.43
2022-09-09T17:26:31.503Z,10.18
2022-09-09T17:28:36.648Z,11.15
2022-09-09T17:30:40.998Z,10.25
2022-09-09T17:32:47.631Z,10.55
2022-09-09T17:34:51.971Z,10.63
2022-09-09T17:36:56.408Z,10.95
2022-09-09T17:39:02.037Z,10.60
2022-09-09T17:41:08.293Z,10.13
2022-09-09T17:43:13.785Z,9.30
2022-09-09T17:45:18.170Z,10.23
2022-09-09T17:47:22.353Z,10.43
2022-09-09T17:49:28.021Z,11.00
2022-09-09T17:51:33.424Z,10.73
2022-09-09T17:53:40.075Z,9.75
2022-09-09T17:55:44.780Z,12.07
2022-09-09T17:57:48.897Z,10.50
2022-09-09T17:59:53.005Z,11.23
2022-09-09T18:01:59.975Z,11.60
2022-09-09T18:04:06.707Z,10.93
2022-09-09T18:06:16.213Z,11.07
2022-09-09T18:08:20.353Z,10.98
2022-09-09T18:10:24.551Z,10.98
2022-09-09T18:12:29.064Z,10.77
2022-09-09T18:14:34.039Z,10.35
2022-09-09T18:16:38.773Z,10.40
2022-09-09T18:18:42.979Z,10.88
2022-09-09T18:20:47.432Z,10.35
2022-09-09T18:22:53.580Z,10.25
2022-09-09T18:24:58.030Z,11.15
2022-09-09T18:27:02.254Z,11.27
2022-09-09T18:29:08.488Z,10.80
2022-09-09T18:31:14.325Z,11.50
2022-09-09T18:33:18.612Z,12.60
2022-09-09T18:35:22.910Z,12.02
2022-09-09T18:37:27.314Z,12.57
2022-09-09T18:39:33.237Z,12.23
2022-09-09T18:41:39.444Z,12.23
2022-09-09T18:43:44.911Z,11.25
2022-09-09T18:45:49.148Z,11.57
2022-09-09T18:47:53.410Z,10.65
2022-09-09T18:49:57.619Z,11.98
2022-09-09T18:52:02.920Z,11.45
2022-09-09T18:54:09.711Z,10.98
2022-09-09T18:56:15.540Z,11.35
2022-09-09T18:58:19.945Z,10.38
2022-09-09T19:00:24.232Z,10.80
2022-09-09T19:02:28.897Z,10.48
2022-09-09T19:04:33.964Z,11.00
2022-09-09T19:06:41.410Z,10.25
2022-09-09T19:08:48.535Z,10.30
2022-09-09T19:10:55.751Z,10.07
2022-09-09T19:13:01.639Z,11.25
2022-09-09T19:15:06.758Z,10.50
2022-09-09T19:17:10.950Z,10.55
2022-09-09T19:19:19.764Z,11.00
2022-09-09T19:21:25.991Z,11.35
2022-09-09T19:23:31.378Z,12.02
2022-09-09T19:25:38.830Z,11.82
2022-09-09T19:27:43.288Z,11.02
2022-09-09T19:29:49.147Z,11.13
2022-09-09T19:32:36.378Z,11.10
2022-09-09T19:34:20.462Z,11.75
2022-09-09T19:36:27.749Z,11.95
2022-09-09T19:38:33.091Z,11.80
2022-09-09T19:40:37.464Z,11.52
2022-09-09T19:42:42.379Z,12.25
2022-09-09T19:44:46.643Z,11.35
2022-09-09T19:46:52.975Z,10.70
2022-09-09T19:48:59.614Z,10.82
2022-09-09T19:51:05.277Z,11.35
2022-09-09T19:53:10.312Z,11.77
2022-09-09T19:55:14.527Z,11.05
2022-09-09T19:57:19.798Z,11.25
2022-09-09T19:59:24.020Z,11.85
2022-09-09T20:01:29.714Z,11.65
2022-09-09T20:03:36.409Z,12.20
2022-09-09T20:05:40.643Z,12.40
2022-09-09T20:07:44.862Z,13.40
2022-09-09T20:09:49.457Z,12.50
2022-09-09T20:11:53.611Z,12.13
2022-09-09T20:13:57.894Z,12.40
2022-09-09T20:16:04.003Z,13.38
2022-09-09T20:18:08.417Z,13.63
2022-09-09T20:20:14.579Z,12.43
2022-09-09T20:22:19.337Z,12.52
2022-09-09T20:24:24.023Z,12.05
2022-09-09T20:26:28.895Z,13.18
2022-09-09T20:28:33.064Z,12.95
2022-09-09T20:30:38.402Z,13.00
2022-09-09T20:32:43.039Z,13.25
2022-09-09T20:34:48.450Z,12.20
2022-09-09T20:36:54.744Z,12.63
2022-09-09T20:39:00.574Z,13.05
2022-09-09T20:41:05.390Z,13.52
2022-09-09T20:43:13.762Z,12.45
2022-09-09T20:45:17.995Z,13.18
2022-09-09T20:47:22.613Z,12.63
2022-09-09T20:49:27.988Z,12.65
2022-09-09T20:51:34.394Z,13.18
2022-09-09T20:53:40.633Z,13.10
2022-09-09T20:55:44.786Z,13.40
2022-09-09T20:57:50.015Z,12.73
2022-09-09T20:59:54.206Z,12.80
2022-09-09T21:02:01.036Z,13.25
2022-09-09T21:04:05.530Z,12.80
2022-09-09T21:06:10.649Z,12.95
2022-09-09T21:08:14.863Z,12.48
2022-09-09T21:10:21.475Z,13.60
2022-09-09T21:12:25.958Z,13.30
2022-09-09T21:14:32.601Z,13.65
2022-09-09T21:16:36.851Z,12.93
2022-09-09T21:18:41.639Z,12.82
2022-09-09T21:20:46.014Z,13.15
2022-09-09T21:22:50.305Z,13.88
2022-09-09T21:24:54.618Z,13.77
2022-09-09T21:27:00.832Z,13.30
2022-09-09T21:29:05.016Z,14.50
2022-09-09T21:31:13.901Z,14.32
2022-09-09T21:33:19.366Z,14.53
2022-09-09T21:35:23.498Z,15.43
2022-09-09T21:37:28.384Z,14.85
2022-09-09T21:39:32.791Z,13.82
2022-09-09T21:41:37.636Z,14.40
2022-09-09T21:43:44.514Z,15.85
2022-09-09T21:45:50.658Z,15.27
2022-09-09T21:47:55.015Z,15.00
2022-09-09T21:50:00.609Z,14.98
2022-09-09T21:52:04.826Z,14.43
2022-09-09T21:54:08.905Z,14.80
2022-09-09T21:56:15.346Z,14.88
2022-09-09T21:58:19.706Z,14.43
2022-09-09T22:00:25.538Z,13.95
2022-09-09T22:02:29.888Z,14.15
2022-09-09T22:04:36.145Z,14.75
2022-09-09T22:06:40.436Z,14.02
2022-09-09T22:08:45.226Z,13.95
2022-09-09T22:10:49.670Z,14.18
2022-09-09T22:12:54.263Z,15.00
2022-09-09T22:14:58.647Z,14.00
2022-09-09T22:17:05.441Z,14.05
2022-09-09T22:19:10.781Z,14.10
2022-09-09T22:21:18.693Z,15.05
2022-09-09T22:23:23.462Z,14.88
2022-09-09T22:25:27.629Z,15.23
2022-09-09T22:27:32.244Z,14.90
2022-09-09T22:29:36.720Z,14.88
2022-09-09T22:31:40.982Z,13.27
2022-09-09T22:33:46.882Z,13.75
2022-09-09T22:35:52.344Z,14.40
2022-09-09T22:37:57.354Z,13.45
2022-09-09T22:40:01.909Z,13.98
2022-09-09T22:42:08.006Z,12.95
2022-09-09T22:44:12.526Z,13.52
2022-09-09T22:46:17.601Z,13.30
2022-09-09T22:48:22.276Z,13.98
2022-09-09T22:50:28.063Z,11.88
2022-09-09T22:52:33.292Z,12.35
2022-09-09T22:54:37.564Z,14.80
2022-09-09T22:56:42.781Z,13.63
2022-09-09T22:58:48.262Z,12.30
2022-09-09T23:00:52.638Z,12.10
2022-09-09T23:02:56.903Z,11.68
2022-09-09T23:05:04.364Z,10.73
2022-09-09T23:07:10.091Z,10.13
2022-09-09T23:09:14.819Z,9.73
2022-09-09T23:11:19.429Z,9.02
2022-09-09T23:13:25.303Z,7.50
2022-09-09T23:15:31.478Z,8.57
2022-09-09T23:17:36.201Z,9.38
2022-09-09T23:19:40.441Z,7.25
2022-09-09T23:21:46.352Z,7.38
2022-09-09T23:23:54.709Z,7.65
2022-09-09T23:26:02.692Z,7.30
2022-09-09T23:28:07.003Z,6.43
2022-09-09T23:30:12.030Z,6.68
2022-09-09T23:32:16.676Z,6.18
2022-09-09T23:34:20.914Z,6.50
2022-09-09T23:36:26.663Z,6.18
2022-09-09T23:38:31.100Z,5.78
2022-09-09T23:40:40.558Z,6.35
2022-09-09T23:42:47.248Z,5.97
2022-09-09T23:44:52.245Z,6.13
2022-09-09T23:46:56.629Z,7.00
2022-09-09T23:49:02.715Z,7.70
2022-09-09T23:51:07.759Z,7.85
2022-09-09T23:53:12.286Z,7.80
2022-09-09T23:55:16.628Z,7.45
2022-09-09T23:57:22.797Z,7.55
2022-09-09T23:59:27.599Z,7.47
